C.s.rainbow — 3EFB2 — position and weather

sailwx.info

Track history (hours):
 
Tides and Currents Weather Stations Pressure Air Temp Water Temp Dewpoint Dewpoint Depression Visibility Wind Speed Wind Dir Waves Ship Positions

C.s.rainbow

Last reported at 2014-Dec-11 04:32 UTC. Time now 2014-Dec-21 21:31 UTC.
Position N 34°01' E 130°51'.
Warning: this ship's position is 10 days out of date.

Length 190 m; draft 7 m.

Type: Cargo ship. MMSI: 371986000.

Date/timePositionNaut miles runAvg speedWind from/ knotsBaromVisibWave heightAir tempDewpointWater temp
2014-Dec-11 04:32N 34°01' E 130°51'22 4.4
2014-Dec-10 23:27N 34°03' E 130°24'43613.5
2014-Dec-09 15:07N 31°06' E 122°32'5 8.1
2014-Dec-09 14:33N 31°06' E 122°26'9 9.3
2014-Dec-09 13:33N 31°07' E 122°16'1413.6
2014-Dec-09 12:33N 31°14' E 122°02'1514.8
2014-Dec-09 11:33N 31°18' E 121°45'1211.7
2014-Dec-09 10:33N 31°24' E 121°33'1010.3
2014-Dec-09 09:33N 31°31' E 121°24'1211.9
2014-Dec-09 08:33N 31°39' E 121°14'6 5.2
2014-Dec-09 07:30N 31°42' E 121°08'0 0.0
2014-Dec-09 06:33N 31°42' E 121°08'0 0.0
2014-Dec-09 05:33N 31°42' E 121°08'0 0.0
2014-Dec-09 04:33N 31°42' E 121°08'0 0.0
2014-Dec-09 03:33N 31°42' E 121°08'0 0.0
2014-Dec-09 02:33N 31°42' E 121°08'0 0.0
2014-Dec-09 01:33N 31°42' E 121°08'0 0.0
2014-Dec-09 00:33N 31°42' E 121°08'0 0.0
2014-Dec-08 23:33N 31°42' E 121°08'0 0.0
2014-Dec-08 22:33N 31°42' E 121°08'0 0.0
2014-Dec-08 21:33N 31°42' E 121°08'0 0.0
2014-Dec-08 20:33N 31°42' E 121°08'0 0.0
2014-Dec-08 19:30N 31°42' E 121°08'0 0.0
2014-Dec-08 18:33N 31°42' E 121°08'0 0.0
2014-Dec-08 17:33N 31°42' E 121°08'0 0.0
2014-Dec-08 16:33N 31°42' E 121°08'0 0.0
2014-Dec-08 15:33N 31°42' E 121°08'0 0.0
2014-Dec-08 14:33N 31°42' E 121°08'0 0.0
2014-Dec-08 13:30N 31°42' E 121°08'0 0.0
2014-Dec-08 12:33N 31°42' E 121°08'0 0.0
2014-Dec-08 11:33N 31°42' E 121°08'0 0.0
2014-Dec-08 10:33N 31°42' E 121°08'0 0.0
2014-Dec-08 09:30N 31°42' E 121°08'0 0.0
2014-Dec-08 08:30N 31°42' E 121°08'0 0.0
2014-Dec-08 07:30N 31°42' E 121°08'0 0.0
2014-Dec-08 06:30N 31°42' E 121°08'0 0.0
2014-Dec-08 05:33N 31°42' E 121°08'0 0.0
2014-Dec-08 04:30N 31°42' E 121°08'0 0.0
2014-Dec-08 03:33N 31°42' E 121°08'0 0.0
2014-Dec-08 02:21N 31°42' E 121°08'0 0.0
2014-Dec-08 01:33N 31°42' E 121°08'0 0.0
2014-Dec-08 00:33N 31°42' E 121°08'0 0.0
2014-Dec-07 23:33N 31°42' E 121°08'0 0.0
2014-Dec-07 22:33N 31°42' E 121°08'0 0.0
2014-Dec-07 21:33N 31°42' E 121°08'2 2.0
2014-Dec-07 20:33N 31°41' E 121°11'10 9.7
2014-Dec-07 19:33N 31°34' E 121°19'1110.8
2014-Dec-07 18:33N 31°27' E 121°28'8 7.6
2014-Dec-07 17:33N 31°23' E 121°36'8 8.4
2014-Dec-07 16:33N 31°19' E 121°44'1413.7
2014-Dec-07 15:33N 31°15' E 121°60'1414.3
2014-Dec-07 14:33N 31°08' E 122°15'1010.3
2014-Dec-07 13:33N 31°06' E 122°26'  
Track history (hours):
 
Tides and Currents Weather Stations Pressure Air Temp Water Temp Dewpoint Dewpoint Depression Visibility Wind Speed Wind Dir Waves Ship Positions

C.s.rainbow

Last reported at 2014-Dec-11 04:32 UTC. Time now 2014-Dec-21 21:31 UTC.
Position N 34°01' E 130°51'.
Warning: this ship's position is 10 days out of date.

Length 190 m; draft 7 m.

Type: Cargo ship. MMSI: 371986000.

Date/timePositionNaut miles runAvg speedWind from/ knotsBaromVisibWave heightAir tempDewpointWater temp
2014-Dec-11 04:32N 34°01' E 130°51'22 4.4
2014-Dec-10 23:27N 34°03' E 130°24'43613.5
2014-Dec-09 15:07N 31°06' E 122°32'5 8.1
2014-Dec-09 14:33N 31°06' E 122°26'9 9.3
2014-Dec-09 13:33N 31°07' E 122°16'1413.6
2014-Dec-09 12:33N 31°14' E 122°02'1514.8
2014-Dec-09 11:33N 31°18' E 121°45'1211.7
2014-Dec-09 10:33N 31°24' E 121°33'1010.3
2014-Dec-09 09:33N 31°31' E 121°24'1211.9
2014-Dec-09 08:33N 31°39' E 121°14'6 5.2
2014-Dec-09 07:30N 31°42' E 121°08'0 0.0
2014-Dec-09 06:33N 31°42' E 121°08'0 0.0
2014-Dec-09 05:33N 31°42' E 121°08'0 0.0
2014-Dec-09 04:33N 31°42' E 121°08'0 0.0
2014-Dec-09 03:33N 31°42' E 121°08'0 0.0
2014-Dec-09 02:33N 31°42' E 121°08'0 0.0
2014-Dec-09 01:33N 31°42' E 121°08'0 0.0
2014-Dec-09 00:33N 31°42' E 121°08'0 0.0
2014-Dec-08 23:33N 31°42' E 121°08'0 0.0
2014-Dec-08 22:33N 31°42' E 121°08'0 0.0
2014-Dec-08 21:33N 31°42' E 121°08'0 0.0
2014-Dec-08 20:33N 31°42' E 121°08'0 0.0
2014-Dec-08 19:30N 31°42' E 121°08'0 0.0
2014-Dec-08 18:33N 31°42' E 121°08'0 0.0
2014-Dec-08 17:33N 31°42' E 121°08'0 0.0
2014-Dec-08 16:33N 31°42' E 121°08'0 0.0
2014-Dec-08 15:33N 31°42' E 121°08'0 0.0
2014-Dec-08 14:33N 31°42' E 121°08'0 0.0
2014-Dec-08 13:30N 31°42' E 121°08'0 0.0
2014-Dec-08 12:33N 31°42' E 121°08'0 0.0
2014-Dec-08 11:33N 31°42' E 121°08'0 0.0
2014-Dec-08 10:33N 31°42' E 121°08'0 0.0
2014-Dec-08 09:30N 31°42' E 121°08'0 0.0
2014-Dec-08 08:30N 31°42' E 121°08'0 0.0
2014-Dec-08 07:30N 31°42' E 121°08'0 0.0
2014-Dec-08 06:30N 31°42' E 121°08'0 0.0
2014-Dec-08 05:33N 31°42' E 121°08'0 0.0
2014-Dec-08 04:30N 31°42' E 121°08'0 0.0
2014-Dec-08 03:33N 31°42' E 121°08'0 0.0
2014-Dec-08 02:21N 31°42' E 121°08'0 0.0
2014-Dec-08 01:33N 31°42' E 121°08'0 0.0
2014-Dec-08 00:33N 31°42' E 121°08'0 0.0
2014-Dec-07 23:33N 31°42' E 121°08'0 0.0
2014-Dec-07 22:33N 31°42' E 121°08'0 0.0
2014-Dec-07 21:33N 31°42' E 121°08'2 2.0
2014-Dec-07 20:33N 31°41' E 121°11'10 9.7
2014-Dec-07 19:33N 31°34' E 121°19'1110.8
2014-Dec-07 18:33N 31°27' E 121°28'8 7.6
2014-Dec-07 17:33N 31°23' E 121°36'8 8.4
2014-Dec-07 16:33N 31°19' E 121°44'1413.7
2014-Dec-07 15:33N 31°15' E 121°60'1414.3
2014-Dec-07 14:33N 31°08' E 122°15'1010.3
2014-Dec-07 13:33N 31°06' E 122°26'  

Dump ship's entire track history